Huvudsida
METAR-TAF:

METAR-TAF

Flygplatser :

Trat, Thailand

latitud: 12-16-28N, longitud: 102-19-08E, höjd: 32 m

Aktuellt väderrapport

Denna rapport gjordes för 8 timmar och 43 minuter sedan, klockan 11:00 UTC
Vind 6 kt från sydväst
Temperatur 29°C
Fuktighet 79%
Tryck 1011 hPa
Sikt 10 km eller mer
Få moln på en höjd av 2000 ft

METAR: VTBO 221100Z 23006KT 9999 FEW020 29/25 Q1011

Tid: 02:43 (19:43 UTC)

Väderprognos

Denna rapport gjordes för 2 timmar och 43 minuter sedan, klockan 17:00 UTC
Prognos gäller från 22 kl. 18 UTC till 23 kl. 18 UTC
Vind 8 kt från sydväst
Sikt 10 km eller mer
Få moln på en höjd av 2000 ft

TAF: VTBO 221700Z 2218/2318 22008KT 9999 FEW020

Aktuella väderrapporter och prognoser från 4000 flygplatser (METAR- och TAF-rapporter).

De tillgängliga stationerna syns som gula och röda prickar på kartan.

För musen över prickarna för att se namnen på stationerna.

Klicka sedan för att få väderrapporter och prognoser.

För att ändra kartan: Klicka på de gröna knapparna med ett svart kors på för att zooma in; den gröna knappen med ett streck på för att zooma ut; eller på de gröna pilarna för angränsande kartor.


METAR-TAF: